createdAt,value
2023-05-15T00:00:44.671Z,1.00
2023-05-15T00:03:28.088Z,1.25
2023-05-15T00:05:56.777Z,0.00
2023-05-15T00:08:24.661Z,1.00
2023-05-15T00:11:00.704Z,1.00
2023-05-15T00:13:30.440Z,1.00
2023-05-15T00:15:58.807Z,1.00
2023-05-15T00:18:27.462Z,2.00
2023-05-15T00:20:55.767Z,1.00
2023-05-15T00:23:23.967Z,1.00
2023-05-15T00:25:52.761Z,1.00
2023-05-15T00:28:20.764Z,1.00
2023-05-15T00:30:49.724Z,1.00
2023-05-15T00:33:17.616Z,0.00
2023-05-15T00:35:46.256Z,1.00
2023-05-15T00:38:14.241Z,1.00
2023-05-15T00:40:42.483Z,1.00
2023-05-15T00:43:10.886Z,1.00
2023-05-15T00:45:40.043Z,1.00
2023-05-15T00:48:09.680Z,1.25
2023-05-15T00:50:38.720Z,1.00
2023-05-15T00:53:06.632Z,1.00
2023-05-15T00:55:34.528Z,1.00
2023-05-15T00:58:03.168Z,1.67
2023-05-15T01:00:33.737Z,2.00
2023-05-15T01:03:01.972Z,1.00
2023-05-15T01:05:30.098Z,1.00
2023-05-15T01:08:19.667Z,1.00
2023-05-15T01:10:48.226Z,1.00
2023-05-15T01:13:16.388Z,2.00
2023-05-15T01:15:44.285Z,1.00
2023-05-15T01:18:12.501Z,1.50
2023-05-15T01:21:05.460Z,0.00
2023-05-15T01:23:51.967Z,1.00
2023-05-15T01:26:41.717Z,1.00
2023-05-15T01:30:02.182Z,0.67
2023-05-15T01:32:42.055Z,0.00
2023-05-15T01:35:27.538Z,1.00
2023-05-15T01:38:22.572Z,1.00
2023-05-15T01:41:08.622Z,1.00
2023-05-15T01:43:39.411Z,1.00
2023-05-15T01:46:09.345Z,1.00
2023-05-15T01:48:37.505Z,1.00
2023-05-15T01:51:05.697Z,1.00
2023-05-15T01:53:34.087Z,1.00
2023-05-15T01:56:02.929Z,1.00
2023-05-15T01:58:31.265Z,1.00
2023-05-15T02:01:00.625Z,1.00
2023-05-15T02:03:28.634Z,1.00
2023-05-15T02:05:56.804Z,1.00
2023-05-15T02:08:28.901Z,0.33
2023-05-15T02:10:58.196Z,1.25
2023-05-15T02:13:26.298Z,1.00
2023-05-15T02:15:54.350Z,1.00
2023-05-15T02:18:22.836Z,1.00
2023-05-15T02:20:51.378Z,1.00
2023-05-15T02:23:21.845Z,1.00
2023-05-15T02:26:08.098Z,1.00
2023-05-15T02:28:44.844Z,1.00
2023-05-15T02:31:53.420Z,1.00
2023-05-15T02:34:35.389Z,1.00
2023-05-15T02:37:03.828Z,1.00
2023-05-15T02:39:32.306Z,1.00
2023-05-15T02:42:00.442Z,1.00
2023-05-15T02:44:28.360Z,1.00
2023-05-15T02:46:58.120Z,0.00
2023-05-15T02:49:26.137Z,1.00
2023-05-15T02:51:54.247Z,1.00
2023-05-15T02:54:22.530Z,1.00
2023-05-15T02:56:51.352Z,1.00
2023-05-15T02:59:20.122Z,1.00
2023-05-15T03:01:48.304Z,0.33
2023-05-15T03:04:16.435Z,0.00
2023-05-15T03:06:44.802Z,0.00
2023-05-15T03:09:12.714Z,1.00
2023-05-15T03:11:40.788Z,1.00
2023-05-15T03:14:09.040Z,1.00
2023-05-15T03:16:40.042Z,0.00
2023-05-15T03:19:08.026Z,1.00
2023-05-15T03:21:36.435Z,1.00
2023-05-15T03:24:04.594Z,0.00
2023-05-15T03:26:32.894Z,1.00
2023-05-15T03:29:01.175Z,0.50
2023-05-15T03:31:29.196Z,0.00
2023-05-15T03:33:57.233Z,0.00
2023-05-15T03:36:25.371Z,1.00
2023-05-15T03:38:53.360Z,0.00
2023-05-15T03:41:22.203Z,1.00
2023-05-15T03:43:50.093Z,0.00
2023-05-15T03:46:20.187Z,1.00
2023-05-15T03:48:48.246Z,1.00
2023-05-15T03:51:16.442Z,1.00
2023-05-15T03:53:44.690Z,0.33
2023-05-15T03:56:12.598Z,0.50
2023-05-15T03:58:40.725Z,1.00
2023-05-15T04:01:10.124Z,0.00
2023-05-15T04:03:38.144Z,1.00
2023-05-15T04:06:06.275Z,1.00
2023-05-15T04:08:34.337Z,1.00
2023-05-15T04:11:02.233Z,1.00
2023-05-15T04:13:30.201Z,1.00
2023-05-15T04:15:59.809Z,0.00
2023-05-15T04:18:27.892Z,1.00
2023-05-15T04:20:56.092Z,0.00
2023-05-15T04:23:24.147Z,1.00
2023-05-15T04:25:53.822Z,1.00
2023-05-15T04:28:22.063Z,1.00
2023-05-15T04:30:50.060Z,0.00
2023-05-15T04:33:18.032Z,1.00
2023-05-15T04:35:46.123Z,1.00
2023-05-15T04:38:14.084Z,1.00
2023-05-15T04:40:42.003Z,1.00
2023-05-15T04:43:10.223Z,1.00
2023-05-15T04:45:38.373Z,1.00
2023-05-15T04:48:06.799Z,1.00
2023-05-15T04:50:34.783Z,1.00
2023-05-15T04:53:03.589Z,1.00
2023-05-15T04:55:33.597Z,1.00
2023-05-15T04:58:01.644Z,1.00
2023-05-15T05:00:30.116Z,1.67
2023-05-15T05:02:58.202Z,2.00
2023-05-15T05:05:26.587Z,2.00
2023-05-15T05:07:54.921Z,1.00
2023-05-15T05:10:23.029Z,3.00
2023-05-15T05:12:51.032Z,3.00
2023-05-15T05:15:19.084Z,2.00
2023-05-15T05:17:47.253Z,2.00
2023-05-15T05:20:15.643Z,2.75
2023-05-15T05:22:43.608Z,3.00
2023-05-15T05:25:11.512Z,2.00
2023-05-15T05:27:39.476Z,2.00
2023-05-15T05:30:08.791Z,2.00
2023-05-15T05:32:36.965Z,3.00
2023-05-15T05:35:05.829Z,2.00
2023-05-15T05:37:33.743Z,3.00
2023-05-15T05:40:01.661Z,3.00
2023-05-15T05:42:29.548Z,3.00
2023-05-15T05:44:57.631Z,2.00
2023-05-15T05:47:25.791Z,3.00
2023-05-15T05:49:55.354Z,2.67
2023-05-15T05:52:23.408Z,2.00
2023-05-15T05:54:51.425Z,2.00
2023-05-15T05:57:19.397Z,3.00
2023-05-15T05:59:47.387Z,3.00
2023-05-15T06:02:15.553Z,2.00
2023-05-15T06:04:43.544Z,1.00
2023-05-15T06:07:11.632Z,2.00
2023-05-15T06:09:40.240Z,0.33
2023-05-15T06:12:09.190Z,1.00
2023-05-15T06:14:37.309Z,1.00
2023-05-15T06:17:05.951Z,1.00
2023-05-15T06:19:33.920Z,1.00
2023-05-15T06:22:02.003Z,2.00
2023-05-15T06:24:30.334Z,1.00
2023-05-15T06:26:58.631Z,1.00
2023-05-15T06:29:27.258Z,2.00
2023-05-15T06:31:55.709Z,1.00
2023-05-15T06:34:24.347Z,1.00
2023-05-15T06:36:52.790Z,0.33
2023-05-15T06:39:20.907Z,1.00
2023-05-15T06:41:48.822Z,0.67
2023-05-15T06:44:17.340Z,1.00
2023-05-15T06:46:45.241Z,0.00
2023-05-15T06:49:13.163Z,1.00
2023-05-15T06:51:41.359Z,0.50
2023-05-15T06:54:09.374Z,0.67
2023-05-15T06:56:37.263Z,3.00
2023-05-15T06:59:05.292Z,2.00
2023-05-15T07:01:33.242Z,4.00
2023-05-15T07:04:01.133Z,3.00
2023-05-15T07:06:29.300Z,2.00
2023-05-15T07:08:57.870Z,1.00
2023-05-15T07:11:26.245Z,1.00
2023-05-15T07:13:54.231Z,0.00
2023-05-15T07:16:22.278Z,1.00
2023-05-15T07:18:50.272Z,1.00
2023-05-15T07:21:18.429Z,1.00
2023-05-15T07:23:46.455Z,1.00
2023-05-15T07:26:23.704Z,1.00
2023-05-15T07:28:59.774Z,1.50
2023-05-15T07:31:27.748Z,1.00
2023-05-15T07:33:56.249Z,1.00
2023-05-15T07:36:24.322Z,1.00
2023-05-15T07:38:52.244Z,1.00
2023-05-15T07:41:20.233Z,1.00
2023-05-15T07:43:48.149Z,2.00
2023-05-15T07:46:16.279Z,2.00
2023-05-15T07:48:44.329Z,1.00
2023-05-15T07:51:12.244Z,1.00
2023-05-15T07:53:40.464Z,2.00
2023-05-15T07:56:08.654Z,1.00
2023-05-15T07:58:38.459Z,0.00
2023-05-15T08:01:07.605Z,0.00
2023-05-15T08:03:36.106Z,1.00
2023-05-15T08:06:04.382Z,1.00
2023-05-15T08:08:32.410Z,2.00
2023-05-15T08:11:01.321Z,1.00
2023-05-15T08:13:29.230Z,2.00
2023-05-15T08:15:57.256Z,1.33
2023-05-15T08:18:25.164Z,1.00
2023-05-15T08:20:53.052Z,1.25
2023-05-15T08:23:20.937Z,2.00
2023-05-15T08:25:49.196Z,1.00
2023-05-15T08:28:17.161Z,1.33
2023-05-15T08:30:45.278Z,1.00
2023-05-15T08:33:13.367Z,1.67
2023-05-15T08:35:41.353Z,1.00
2023-05-15T08:38:09.445Z,1.00
2023-05-15T08:40:39.675Z,2.00
2023-05-15T08:43:16.522Z,2.00
2023-05-15T08:45:44.497Z,1.33
2023-05-15T08:48:14.631Z,1.67
2023-05-15T08:50:44.244Z,2.00
2023-05-15T08:53:12.691Z,1.00
2023-05-15T08:55:40.830Z,2.00
2023-05-15T08:58:09.262Z,3.00
2023-05-15T09:00:37.979Z,1.00
2023-05-15T09:03:06.742Z,3.00
2023-05-15T09:05:34.731Z,3.00
2023-05-15T09:08:03.960Z,5.00
2023-05-15T09:10:31.934Z,2.00
2023-05-15T09:13:00.118Z,2.33
2023-05-15T09:15:28.282Z,5.00
2023-05-15T09:17:56.530Z,4.00
2023-05-15T09:20:30.490Z,6.00
2023-05-15T09:22:59.578Z,4.00
2023-05-15T09:25:40.564Z,3.00
2023-05-15T09:28:10.604Z,2.00
2023-05-15T09:30:39.242Z,3.00
2023-05-15T09:33:07.316Z,2.67
2023-05-15T09:35:37.390Z,2.67
2023-05-15T09:38:12.783Z,3.00
2023-05-15T09:40:41.156Z,3.00
2023-05-15T09:43:12.199Z,3.00
2023-05-15T09:45:40.215Z,2.00
2023-05-15T09:48:08.683Z,2.00
2023-05-15T09:50:38.582Z,2.00
2023-05-15T09:53:06.552Z,3.00
2023-05-15T09:55:34.997Z,2.00
2023-05-15T09:58:13.436Z,3.00
2023-05-15T10:00:48.174Z,1.00
2023-05-15T10:03:19.563Z,1.67
2023-05-15T10:05:47.671Z,2.00
2023-05-15T10:08:16.410Z,1.00
2023-05-15T10:10:44.855Z,1.75
2023-05-15T10:13:13.966Z,2.00
2023-05-15T10:15:42.853Z,2.00
2023-05-15T10:18:11.886Z,2.00
2023-05-15T10:20:39.867Z,2.00
2023-05-15T10:23:07.739Z,1.67
2023-05-15T10:25:42.988Z,2.00
2023-05-15T10:28:11.631Z,2.00
2023-05-15T10:30:39.812Z,1.00
2023-05-15T10:33:08.494Z,2.00
2023-05-15T10:35:38.143Z,2.50
2023-05-15T10:38:06.275Z,2.00
2023-05-15T10:40:36.909Z,2.00
2023-05-15T10:43:05.502Z,2.00
2023-05-15T10:45:33.517Z,0.33
2023-05-15T10:48:01.409Z,1.00
2023-05-15T10:50:29.760Z,1.00
2023-05-15T10:52:58.477Z,1.00
2023-05-15T10:55:26.575Z,1.00
2023-05-15T10:57:55.000Z,1.00
2023-05-15T11:00:23.067Z,1.67
2023-05-15T11:02:53.854Z,2.00
2023-05-15T11:05:22.232Z,2.00
2023-05-15T11:08:17.849Z,1.00
2023-05-15T11:10:46.295Z,3.00
2023-05-15T11:13:14.336Z,2.00
2023-05-15T11:15:43.371Z,1.00
2023-05-15T11:18:11.841Z,3.00
2023-05-15T11:20:54.632Z,2.75
2023-05-15T11:23:22.926Z,1.75
2023-05-15T11:25:57.573Z,1.25
2023-05-15T11:28:26.082Z,0.00
2023-05-15T11:30:59.421Z,1.00
2023-05-15T11:33:29.635Z,1.00
2023-05-15T11:35:59.248Z,1.00
2023-05-15T11:38:27.380Z,2.00
2023-05-15T11:41:02.744Z,1.50
2023-05-15T11:43:35.346Z,1.00
2023-05-15T11:46:03.334Z,1.50
2023-05-15T11:48:32.736Z,2.00
2023-05-15T11:51:04.457Z,1.00
2023-05-15T11:53:33.091Z,1.00
2023-05-15T11:56:01.412Z,1.67
2023-05-15T11:58:29.472Z,1.00
2023-05-15T12:00:57.955Z,1.00
2023-05-15T12:03:27.653Z,1.00
2023-05-15T12:05:59.442Z,1.00
2023-05-15T12:08:33.451Z,1.25
2023-05-15T12:11:01.945Z,1.00
2023-05-15T12:13:31.129Z,0.00
2023-05-15T12:15:59.350Z,1.00
2023-05-15T12:18:27.345Z,1.00
2023-05-15T12:20:55.427Z,0.00
2023-05-15T12:23:24.331Z,1.00
2023-05-15T12:25:57.774Z,0.00
2023-05-15T12:28:26.717Z,0.00
2023-05-15T12:30:54.660Z,1.00
2023-05-15T12:33:23.454Z,1.00
2023-05-15T12:35:54.767Z,1.00
2023-05-15T12:38:24.937Z,1.00
2023-05-15T12:40:57.101Z,0.00
2023-05-15T12:43:25.923Z,1.00
2023-05-15T12:45:55.023Z,1.00
2023-05-15T12:48:23.032Z,1.00
2023-05-15T12:50:51.673Z,1.00
2023-05-15T12:53:21.459Z,0.00
2023-05-15T12:55:49.814Z,0.00
2023-05-15T12:58:19.229Z,1.00
2023-05-15T13:00:48.098Z,0.67
2023-05-15T13:03:16.091Z,0.00
2023-05-15T13:05:45.628Z,1.00
2023-05-15T13:08:17.627Z,1.00
2023-05-15T13:10:46.621Z,1.00
2023-05-15T13:13:15.073Z,0.00
2023-05-15T13:15:43.965Z,1.00
2023-05-15T13:18:16.628Z,0.00
2023-05-15T13:20:48.566Z,1.00
2023-05-15T13:23:18.190Z,1.00
2023-05-15T13:25:46.838Z,0.00
2023-05-15T13:28:15.257Z,1.00
2023-05-15T13:30:43.391Z,0.00
2023-05-15T13:33:12.427Z,0.00
2023-05-15T13:35:41.299Z,0.00
2023-05-15T13:38:11.840Z,0.00
2023-05-15T13:40:39.892Z,0.00
2023-05-15T13:43:07.942Z,1.00
2023-05-15T13:45:36.828Z,1.00
2023-05-15T13:48:05.564Z,1.00
2023-05-15T13:50:33.462Z,1.00
2023-05-15T13:53:01.329Z,1.00
2023-05-15T13:55:29.382Z,0.00
2023-05-15T13:57:57.397Z,1.00
2023-05-15T14:00:25.596Z,0.50
2023-05-15T14:02:53.747Z,1.00
2023-05-15T14:05:21.727Z,1.00
2023-05-15T14:07:49.697Z,1.00
2023-05-15T14:10:17.543Z,1.00
2023-05-15T14:12:46.671Z,1.00
2023-05-15T14:15:15.801Z,0.00
2023-05-15T14:17:43.859Z,0.00
2023-05-15T14:20:12.112Z,0.00
2023-05-15T14:22:40.657Z,0.00
2023-05-15T14:25:09.463Z,0.00
2023-05-15T14:27:37.405Z,0.00
2023-05-15T14:30:06.081Z,0.00
2023-05-15T14:32:34.112Z,0.00
2023-05-15T14:35:02.743Z,0.00
2023-05-15T14:37:31.025Z,1.00
2023-05-15T14:39:59.377Z,0.00
2023-05-15T14:42:27.501Z,0.33
2023-05-15T14:44:55.464Z,0.00
2023-05-15T14:47:25.330Z,0.00
2023-05-15T14:49:53.753Z,0.00
2023-05-15T14:52:21.840Z,1.00
2023-05-15T14:55:04.975Z,0.00
2023-05-15T14:57:37.460Z,0.00
2023-05-15T15:00:06.939Z,0.00
2023-05-15T15:02:35.226Z,1.00
2023-05-15T15:05:04.689Z,0.00
2023-05-15T15:07:35.069Z,0.00
2023-05-15T15:10:03.041Z,1.00
2023-05-15T15:12:31.495Z,0.00
2023-05-15T15:14:59.818Z,0.00
2023-05-15T15:17:28.066Z,1.00
2023-05-15T15:19:56.437Z,0.00
2023-05-15T15:22:24.348Z,1.00
2023-05-15T15:24:52.259Z,0.00
2023-05-15T15:27:20.129Z,1.00
2023-05-15T15:29:48.127Z,0.00
2023-05-15T15:32:16.562Z,0.00
2023-05-15T15:34:44.479Z,1.00
2023-05-15T15:37:12.414Z,1.00
2023-05-15T15:39:40.487Z,0.00
2023-05-15T15:42:08.444Z,0.00
2023-05-15T15:44:36.610Z,0.33
2023-05-15T15:47:04.594Z,1.00
2023-05-15T15:49:32.505Z,0.67
2023-05-15T15:52:00.657Z,0.00
2023-05-15T15:54:28.961Z,0.00
2023-05-15T15:56:57.210Z,0.33
2023-05-15T15:59:25.245Z,1.00
2023-05-15T16:01:53.174Z,1.00
2023-05-15T16:04:21.521Z,1.00
2023-05-15T16:06:49.525Z,0.33
2023-05-15T16:09:19.834Z,1.00
2023-05-15T16:11:47.723Z,0.67
2023-05-15T16:14:15.945Z,1.00
2023-05-15T16:16:43.896Z,0.67
2023-05-15T16:19:12.670Z,0.00
2023-05-15T16:21:40.627Z,1.00
2023-05-15T16:24:08.628Z,0.00
2023-05-15T16:26:39.556Z,1.00
2023-05-15T16:29:07.794Z,1.00
2023-05-15T16:31:35.995Z,1.00
2023-05-15T16:34:04.518Z,0.00
2023-05-15T16:36:32.821Z,0.00
2023-05-15T16:39:01.504Z,1.00
2023-05-15T16:41:29.499Z,1.00
2023-05-15T16:43:57.481Z,0.00
2023-05-15T16:46:25.800Z,0.67
2023-05-15T16:48:54.105Z,0.00
2023-05-15T16:51:21.971Z,1.00
2023-05-15T16:53:49.887Z,0.00
2023-05-15T16:56:17.871Z,0.33
2023-05-15T16:58:46.063Z,1.00
2023-05-15T17:01:14.138Z,0.00
2023-05-15T17:03:42.262Z,1.00
2023-05-15T17:06:10.285Z,1.00
2023-05-15T17:08:38.359Z,1.00
2023-05-15T17:11:06.462Z,0.33
2023-05-15T17:13:34.680Z,0.00
2023-05-15T17:16:02.868Z,1.00
2023-05-15T17:18:30.926Z,1.00
2023-05-15T17:20:58.829Z,1.00
2023-05-15T17:23:26.824Z,1.00
2023-05-15T17:25:54.680Z,2.00
2023-05-15T17:28:22.580Z,0.33
2023-05-15T17:30:50.954Z,0.00
2023-05-15T17:33:19.007Z,0.00
2023-05-15T17:35:46.973Z,1.00
2023-05-15T17:38:14.994Z,0.00
2023-05-15T17:40:43.712Z,1.00
2023-05-15T17:43:11.657Z,0.67
2023-05-15T17:45:39.555Z,0.67
2023-05-15T17:48:07.520Z,0.00
2023-05-15T17:50:38.069Z,0.00
2023-05-15T17:53:06.165Z,1.00
2023-05-15T17:55:34.107Z,2.00
2023-05-15T17:58:02.928Z,1.00
2023-05-15T18:00:30.904Z,1.00
2023-05-15T18:03:00.800Z,1.00
2023-05-15T18:05:29.017Z,1.00
2023-05-15T18:08:00.206Z,1.00
2023-05-15T18:10:28.056Z,0.33
2023-05-15T18:12:56.329Z,2.00
2023-05-15T18:15:24.779Z,1.00
2023-05-15T18:17:53.914Z,1.33
2023-05-15T18:20:22.029Z,2.00
2023-05-15T18:22:50.786Z,0.67
2023-05-15T18:25:18.974Z,1.00
2023-05-15T18:27:47.019Z,1.00
2023-05-15T18:30:15.157Z,0.33
2023-05-15T18:32:43.209Z,1.00
2023-05-15T18:35:11.292Z,1.00
2023-05-15T18:37:39.272Z,1.00
2023-05-15T18:40:07.820Z,1.00
2023-05-15T18:42:35.925Z,1.00
2023-05-15T18:45:04.167Z,1.00
2023-05-15T18:47:32.339Z,1.00
2023-05-15T18:50:00.370Z,2.00
2023-05-15T18:52:28.857Z,2.00
2023-05-15T18:54:57.758Z,1.00
2023-05-15T18:57:26.321Z,1.00
2023-05-15T18:59:55.062Z,1.00
2023-05-15T19:02:25.223Z,1.25
2023-05-15T19:04:54.174Z,0.00
2023-05-15T19:07:22.186Z,1.00
2023-05-15T19:09:50.484Z,1.00
2023-05-15T19:12:18.431Z,1.00
2023-05-15T19:14:46.458Z,1.00
2023-05-15T19:17:14.402Z,0.00
2023-05-15T19:19:42.250Z,1.00
2023-05-15T19:22:10.105Z,1.00
2023-05-15T19:24:38.078Z,1.33
2023-05-15T19:27:06.507Z,1.00
2023-05-15T19:29:34.693Z,2.00
2023-05-15T19:32:03.184Z,1.00
2023-05-15T19:34:31.079Z,1.00
2023-05-15T19:36:59.040Z,1.00
2023-05-15T19:39:27.235Z,0.00
2023-05-15T19:41:56.002Z,1.50
2023-05-15T19:44:23.946Z,0.33
2023-05-15T19:46:53.821Z,1.00
2023-05-15T19:49:22.679Z,1.00
2023-05-15T19:51:50.600Z,1.00
2023-05-15T19:54:18.757Z,2.00
2023-05-15T19:56:46.720Z,1.00
2023-05-15T19:59:14.948Z,1.00
2023-05-15T20:01:43.005Z,1.00
2023-05-15T20:04:13.657Z,1.00
2023-05-15T20:06:42.352Z,1.00
2023-05-15T20:09:10.588Z,1.00
2023-05-15T20:11:39.024Z,1.00
2023-05-15T20:14:07.175Z,1.00
2023-05-15T20:16:35.438Z,1.00
2023-05-15T20:19:04.138Z,1.00
2023-05-15T20:21:32.463Z,1.75
2023-05-15T20:24:00.409Z,1.00
2023-05-15T20:26:28.345Z,1.00
2023-05-15T20:28:56.373Z,1.00
2023-05-15T20:31:24.280Z,1.00
2023-05-15T20:33:52.241Z,1.00
2023-05-15T20:36:25.199Z,0.50
2023-05-15T20:38:53.270Z,1.00
2023-05-15T20:41:23.239Z,0.00
2023-05-15T20:43:51.406Z,2.00
2023-05-15T20:46:19.714Z,0.00
2023-05-15T20:48:47.807Z,1.00
2023-05-15T20:51:16.175Z,2.00
2023-05-15T20:53:44.113Z,1.00
2023-05-15T20:56:12.071Z,1.00
2023-05-15T20:58:39.955Z,1.00
2023-05-15T21:01:07.902Z,1.00
2023-05-15T21:03:36.149Z,1.00
2023-05-15T21:06:04.542Z,1.00
2023-05-15T21:08:32.629Z,0.00
2023-05-15T21:11:00.672Z,0.33
2023-05-15T21:13:28.672Z,0.33
2023-05-15T21:15:56.574Z,0.00
2023-05-15T21:18:24.804Z,0.00
2023-05-15T21:20:53.012Z,1.00
2023-05-15T21:23:21.404Z,1.00
2023-05-15T21:25:49.618Z,1.00
2023-05-15T21:28:17.674Z,1.00
2023-05-15T21:30:45.740Z,1.00
2023-05-15T21:33:13.634Z,1.00
2023-05-15T21:35:41.634Z,0.00
2023-05-15T21:38:09.657Z,1.00
2023-05-15T21:40:37.641Z,1.00
2023-05-15T21:43:05.494Z,1.00
2023-05-15T21:45:33.587Z,1.67
2023-05-15T21:48:02.050Z,1.00
2023-05-15T21:50:30.129Z,1.00
2023-05-15T21:52:58.167Z,1.00
2023-05-15T21:55:26.290Z,1.00
2023-05-15T21:57:54.245Z,0.50
2023-05-15T22:00:22.223Z,1.00
2023-05-15T22:02:50.249Z,1.00
2023-05-15T22:05:18.197Z,0.00
2023-05-15T22:07:46.484Z,0.00
2023-05-15T22:10:16.556Z,0.75
2023-05-15T22:12:44.520Z,1.00
2023-05-15T22:15:14.658Z,1.00
2023-05-15T22:17:42.679Z,1.00
2023-05-15T22:20:11.888Z,1.00
2023-05-15T22:22:40.714Z,0.67
2023-05-15T22:25:09.026Z,0.00
2023-05-15T22:27:37.703Z,0.25
2023-05-15T22:30:06.828Z,0.00
2023-05-15T22:32:35.433Z,1.00
2023-05-15T22:35:04.124Z,0.25
2023-05-15T22:37:32.089Z,0.00
2023-05-15T22:39:59.978Z,0.75
2023-05-15T22:42:28.247Z,0.00
2023-05-15T22:44:57.864Z,0.00
2023-05-15T22:47:26.567Z,1.00
2023-05-15T22:49:54.592Z,1.00
2023-05-15T22:52:22.795Z,0.50
2023-05-15T22:54:50.856Z,0.67
2023-05-15T22:57:19.032Z,1.00
2023-05-15T22:59:47.068Z,1.00
2023-05-15T23:02:15.406Z,0.00
2023-05-15T23:04:43.450Z,0.00
2023-05-15T23:07:11.467Z,1.00
2023-05-15T23:09:39.365Z,0.00
2023-05-15T23:12:07.744Z,0.00
2023-05-15T23:14:35.714Z,1.00
2023-05-15T23:17:04.058Z,1.00
2023-05-15T23:19:32.040Z,0.67
2023-05-15T23:22:00.106Z,1.00
2023-05-15T23:24:28.334Z,1.00
2023-05-15T23:26:56.431Z,1.00
2023-05-15T23:29:24.536Z,1.00
2023-05-15T23:31:52.936Z,1.00
2023-05-15T23:34:21.161Z,1.00
2023-05-15T23:36:49.704Z,0.00
2023-05-15T23:39:17.625Z,1.00
2023-05-15T23:41:46.228Z,1.00
2023-05-15T23:44:14.553Z,1.00
2023-05-15T23:46:42.471Z,1.00
2023-05-15T23:49:10.527Z,1.00
2023-05-15T23:51:38.550Z,1.00
2023-05-15T23:54:06.625Z,1.00
2023-05-15T23:56:34.525Z,1.00
2023-05-15T23:59:03.035Z,0.00
